Time;durP1;ratioP1;P1;durP2;ratioP2;P2;SDS_P1;SDS_P2;PMS_P1;PMS_P2;Temp;Humidity;BMP_temperature;BMP_pressure;BME280_temperature;BME280_humidity;BME280_pressure;Samples;Min_cycle;Max_cycle;Signal;HPM_P1;HPM_P2
2023/06/05 00:01:18;;;;;;;4.10;3.07;;;;;;;;;;5043677;28;20181;-72
2023/06/05 00:03:43;;;;;;;7.37;3.43;;;;;;;;;;5046925;28;20204;-71
2023/06/05 00:06:08;;;;;;;5.53;3.50;;;;;;;;;;5034144;22;20231;-74
2023/06/05 00:08:34;;;;;;;5.80;3.53;;;;;;;;;;5018676;28;20641;-74
2023/06/05 00:10:59;;;;;;;6.23;3.57;;;;;;;;;;5014583;28;20221;-74
2023/06/05 00:13:24;;;;;;;5.27;3.93;;;;;;;;;;4996384;28;20190;-75
2023/06/05 00:15:51;;;;;;;7.90;3.53;;;;;;;;;;5013332;28;20687;-75
2023/06/05 00:18:17;;;;;;;7.87;4.00;;;;;;;;;;4992699;28;20202;-75
2023/06/05 00:20:42;;;;;;;7.63;3.80;;;;;;;;;;5012659;28;20179;-75
2023/06/05 00:23:08;;;;;;;5.27;3.60;;;;;;;;;;5011920;28;20660;-74
2023/06/05 00:25:33;;;;;;;6.60;3.60;;;;;;;;;;5011106;28;20680;-75
2023/06/05 00:27:58;;;;;;;5.70;3.50;;;;;;;;;;5008937;28;20179;-74
2023/06/05 00:30:24;;;;;;;6.30;4.30;;;;;;;;;;5010497;28;20203;-74
2023/06/05 00:32:49;;;;;;;6.17;3.37;;;;;;;;;;5003613;28;20545;-74
2023/06/05 00:35:14;;;;;;;8.67;4.80;;;;;;;;;;5025931;28;20291;-74
2023/06/05 00:37:39;;;;;;;6.93;4.07;;;;;;;;;;5012479;28;20326;-74
2023/06/05 00:40:05;;;;;;;6.23;3.47;;;;;;;;;;5011667;28;20202;-74
2023/06/05 00:42:31;;;;;;;6.27;3.67;;;;;;;;;;5003621;28;20561;-74
2023/06/05 00:44:56;;;;;;;7.13;3.83;;;;;;;;;;4990296;28;21303;-74
2023/06/05 00:47:21;;;;;;;9.07;3.70;;;;;;;;;;5010651;28;20175;-74
2023/06/05 00:49:47;;;;;;;8.67;4.80;;;;;;;;;;5013482;28;20203;-74
2023/06/05 00:52:13;;;;;;;6.87;3.73;;;;;;;;;;5011852;28;20263;-75
2023/06/05 00:54:40;;;;;;;6.43;3.90;;;;;;;;;;5011255;28;20193;-75
2023/06/05 00:57:07;;;;;;;10.23;4.37;;;;;;;;;;5009558;28;20269;-75
2023/06/05 00:59:34;;;;;;;5.60;4.20;;;;;;;;;;4993193;28;20623;-75
2023/06/05 01:02:00;;;;;;;8.63;4.43;;;;;;;;;;5012145;28;20451;-74
2023/06/05 01:04:27;;;;;;;8.90;4.60;;;;;;;;;;5012451;28;20179;-74
2023/06/05 01:06:53;;;;;;;8.20;4.57;;;;;;;;;;5012836;28;20585;-75
2023/06/05 01:09:18;;;;;;;7.53;4.57;;;;;;;;;;5011924;28;20179;-75
2023/06/05 01:12:00;;;;;;;7.90;4.90;;;;;;;;;;5013006;28;20229;-75
2023/06/05 01:14:30;;;;;;;6.30;4.13;;;;;;;;;;5010543;28;20190;-74
2023/06/05 01:16:56;;;;;;;7.60;4.43;;;;;;;;;;4993213;28;20170;-75
2023/06/05 01:19:24;;;;;;;6.17;4.53;;;;;;;;;;5010280;28;20688;-74
2023/06/05 01:21:49;;;;;;;10.97;4.63;;;;;;;;;;4995170;28;20182;-75
2023/06/05 01:24:15;;;;;;;6.87;4.47;;;;;;;;;;5008625;28;20179;-74
2023/06/05 01:27:02;;;;;;;5.53;4.00;;;;;;;;;;4992838;28;20571;-74
2023/06/05 01:29:30;;;;;;;6.80;4.63;;;;;;;;;;5006431;28;20190;-74
2023/06/05 01:31:58;;;;;;;6.07;4.07;;;;;;;;;;5009924;28;20186;-75
2023/06/05 01:34:24;;;;;;;10.80;4.63;;;;;;;;;;5003901;28;20186;-74
2023/06/05 01:36:50;;;;;;;7.10;5.10;;;;;;;;;;4995384;28;20199;-74
2023/06/05 01:39:18;;;;;;;8.27;4.57;;;;;;;;;;4991737;28;20233;-74
2023/06/05 01:41:43;;;;;;;8.97;4.63;;;;;;;;;;5011827;28;20749;-75
2023/06/05 01:44:09;;;;;;;6.67;4.50;;;;;;;;;;5012001;28;20211;-75
2023/06/05 01:46:35;;;;;;;7.33;4.70;;;;;;;;;;5011138;28;20564;-74
2023/06/05 01:49:02;;;;;;;8.43;4.37;;;;;;;;;;4992822;28;20187;-75
2023/06/05 01:51:27;;;;;;;7.17;4.60;;;;;;;;;;5008893;28;20178;-74
2023/06/05 01:53:52;;;;;;;8.73;4.63;;;;;;;;;;5009605;28;20186;-75
2023/06/05 01:56:23;;;;;;;7.33;4.50;;;;;;;;;;4989471;28;20237;-75
2023/06/05 01:58:48;;;;;;;9.23;4.70;;;;;;;;;;5006069;28;20179;-75
2023/06/05 02:01:15;;;;;;;9.83;5.20;;;;;;;;;;5011377;28;20791;-74
2023/06/05 02:03:47;;;;;;;10.57;5.80;;;;;;;;;;5003626;28;20185;-74
2023/06/05 02:06:12;;;;;;;8.10;4.90;;;;;;;;;;5005612;28;20219;-75
2023/06/05 02:08:37;;;;;;;8.47;5.80;;;;;;;;;;4990767;28;20179;-74
2023/06/05 02:11:03;;;;;;;10.63;5.80;;;;;;;;;;5010920;28;20183;-75
2023/06/05 02:13:28;;;;;;;8.27;4.93;;;;;;;;;;4994848;28;20183;-75
2023/06/05 02:15:56;;;;;;;7.80;5.13;;;;;;;;;;5012652;28;20248;-75
2023/06/05 02:18:25;;;;;;;6.50;4.90;;;;;;;;;;5012317;28;20183;-75
2023/06/05 02:20:52;;;;;;;9.40;4.93;;;;;;;;;;5000680;28;20198;-74
2023/06/05 02:23:18;;;;;;;7.93;5.27;;;;;;;;;;5012984;28;20675;-75
2023/06/05 02:25:43;;;;;;;8.90;5.70;;;;;;;;;;5014331;28;20199;-74
2023/06/05 02:28:08;;;;;;;9.50;5.47;;;;;;;;;;5013070;28;20171;-75
2023/06/05 02:30:33;;;;;;;7.37;5.50;;;;;;;;;;5012552;28;20184;-75
2023/06/05 02:33:00;;;;;;;10.13;5.50;;;;;;;;;;5014945;28;20221;-74
2023/06/05 02:35:26;;;;;;;14.07;5.20;;;;;;;;;;5014238;28;20298;-74
2023/06/05 02:37:51;;;;;;;7.57;4.80;;;;;;;;;;5003737;28;20238;-75
2023/06/05 02:40:16;;;;;;;9.40;5.07;;;;;;;;;;5013302;28;20534;-75
2023/06/05 02:42:42;;;;;;;8.83;5.13;;;;;;;;;;4989642;28;20233;-74
2023/06/05 02:45:07;;;;;;;7.70;4.97;;;;;;;;;;5013075;28;20202;-74
2023/06/05 02:47:33;;;;;;;8.93;5.43;;;;;;;;;;5012832;28;20673;-74
2023/06/05 02:49:58;;;;;;;7.47;5.43;;;;;;;;;;5012482;28;20552;-74
2023/06/05 02:52:24;;;;;;;9.43;4.97;;;;;;;;;;5012748;28;20253;-75
2023/06/05 02:54:49;;;;;;;10.23;6.03;;;;;;;;;;4995234;28;20210;-74
2023/06/05 02:57:17;;;;;;;9.33;4.83;;;;;;;;;;5012785;28;20187;-74
2023/06/05 02:59:42;;;;;;;8.43;4.90;;;;;;;;;;5013334;28;21629;-75
2023/06/05 03:02:08;;;;;;;8.33;5.50;;;;;;;;;;5014338;28;20270;-75
2023/06/05 03:04:33;;;;;;;8.50;5.77;;;;;;;;;;5000567;28;20183;-74
2023/06/05 03:06:59;;;;;;;7.20;4.83;;;;;;;;;;5012235;28;20198;-75
2023/06/05 03:09:24;;;;;;;10.57;5.40;;;;;;;;;;5013983;28;20786;-76
2023/06/05 03:11:49;;;;;;;10.10;6.03;;;;;;;;;;5014581;28;20183;-74
2023/06/05 03:14:15;;;;;;;8.53;5.23;;;;;;;;;;4994429;28;20191;-74
2023/06/05 03:16:43;;;;;;;8.73;5.37;;;;;;;;;;5010046;28;21496;-74
2023/06/05 03:19:09;;;;;;;11.90;5.33;;;;;;;;;;4992280;28;20168;-74
2023/06/05 03:21:35;;;;;;;8.73;5.60;;;;;;;;;;5012784;28;20175;-75
2023/06/05 03:24:01;;;;;;;10.17;5.87;;;;;;;;;;5013520;28;20664;-74
2023/06/05 03:26:26;;;;;;;11.13;6.03;;;;;;;;;;5011107;28;20191;-74
2023/06/05 03:28:52;;;;;;;8.83;5.77;;;;;;;;;;5014512;28;20261;-74
2023/06/05 03:31:17;;;;;;;11.27;5.90;;;;;;;;;;5013900;28;20183;-74
2023/06/05 03:33:42;;;;;;;13.37;6.77;;;;;;;;;;5019246;28;20202;-74
2023/06/05 03:36:08;;;;;;;12.63;6.50;;;;;;;;;;5015073;28;20238;-74
2023/06/05 03:38:33;;;;;;;9.67;5.93;;;;;;;;;;5006694;28;20183;-74
2023/06/05 03:40:58;;;;;;;10.10;5.93;;;;;;;;;;5013693;28;20217;-74
2023/06/05 03:43:24;;;;;;;9.67;5.63;;;;;;;;;;5012114;28;20175;-74
2023/06/05 03:45:51;;;;;;;11.90;6.13;;;;;;;;;;5013381;28;20187;-75
2023/06/05 03:48:19;;;;;;;10.03;6.83;;;;;;;;;;5012229;28;20182;-75
2023/06/05 03:50:44;;;;;;;10.60;6.50;;;;;;;;;;5012639;28;20175;-74
2023/06/05 03:53:10;;;;;;;9.10;5.30;;;;;;;;;;5013869;28;20179;-75
2023/06/05 03:55:41;;;;;;;10.30;6.03;;;;;;;;;;5010615;28;20203;-75
2023/06/05 03:58:13;;;;;;;11.80;6.63;;;;;;;;;;5001942;28;20191;-75
2023/06/05 04:00:38;;;;;;;9.60;5.60;;;;;;;;;;5012703;28;20195;-74
2023/06/05 04:03:04;;;;;;;12.40;6.33;;;;;;;;;;5011467;28;20273;-75
2023/06/05 04:05:29;;;;;;;9.90;5.90;;;;;;;;;;5012676;28;20222;-74
2023/06/05 04:07:55;;;;;;;12.77;6.50;;;;;;;;;;4995521;28;20233;-74
2023/06/05 04:10:21;;;;;;;13.47;6.60;;;;;;;;;;5010205;28;20190;-74
2023/06/05 04:12:46;;;;;;;9.97;5.53;;;;;;;;;;5011595;28;20175;-74
2023/06/05 04:15:11;;;;;;;10.63;6.23;;;;;;;;;;4994776;28;20253;-74
2023/06/05 04:17:37;;;;;;;10.47;5.87;;;;;;;;;;5011495;28;20190;-74
2023/06/05 04:20:04;;;;;;;10.40;5.80;;;;;;;;;;4994513;28;20681;-74
2023/06/05 04:22:29;;;;;;;13.30;6.37;;;;;;;;;;5012784;28;20549;-74
2023/06/05 04:24:54;;;;;;;11.87;5.53;;;;;;;;;;5011696;28;20198;-74
2023/06/05 04:27:19;;;;;;;11.73;6.30;;;;;;;;;;5011748;28;20187;-74
2023/06/05 04:29:45;;;;;;;13.73;6.30;;;;;;;;;;5012879;28;20237;-74
2023/06/05 04:32:10;;;;;;;8.60;5.93;;;;;;;;;;5013052;28;20179;-74
2023/06/05 04:34:35;;;;;;;7.47;5.40;;;;;;;;;;5011443;28;20190;-75
2023/06/05 04:37:01;;;;;;;8.40;5.40;;;;;;;;;;4999308;28;20171;-74
2023/06/05 04:39:26;;;;;;;9.00;5.53;;;;;;;;;;4993877;28;20276;-75
2023/06/05 04:41:52;;;;;;;9.57;6.18;;;;;;;;;;5012582;28;20277;-75
2023/06/05 04:44:17;;;;;;;8.07;5.47;;;;;;;;;;4996119;28;20217;-74
2023/06/05 04:46:43;;;;;;;12.18;5.25;;;;;;;;;;4989916;28;20242;-75
2023/06/05 04:49:12;;;;;;;10.52;5.30;;;;;;;;;;4995745;28;20179;-74
2023/06/05 04:51:37;;;;;;;8.18;5.63;;;;;;;;;;4992010;28;20199;-75
2023/06/05 04:54:02;;;;;;;10.57;5.40;;;;;;;;;;5010979;28;20568;-75
2023/06/05 04:56:28;;;;;;;10.23;5.72;;;;;;;;;;4990551;28;20207;-74
2023/06/05 04:58:53;;;;;;;8.23;5.40;;;;;;;;;;4984942;28;20684;-74
2023/06/05 05:01:19;;;;;;;14.07;7.28;;;;;;;;;;4992355;28;20294;-74
2023/06/05 05:03:46;;;;;;;11.13;5.43;;;;;;;;;;5012251;28;20171;-74
2023/06/05 05:06:16;;;;;;;8.82;5.32;;;;;;;;;;5010568;28;20246;-74
2023/06/05 05:08:43;;;;;;;10.27;5.13;;;;;;;;;;5011931;28;20175;-75
2023/06/05 05:11:08;;;;;;;10.35;5.38;;;;;;;;;;4993111;28;20240;-74
2023/06/05 05:13:33;;;;;;;10.30;4.88;;;;;;;;;;5005851;28;20674;-74
2023/06/05 05:15:59;;;;;;;9.90;5.50;;;;;;;;;;5010231;28;20740;-74
2023/06/05 05:18:25;;;;;;;9.73;5.38;;;;;;;;;;5011454;28;20182;-74
2023/06/05 05:20:50;;;;;;;11.65;5.60;;;;;;;;;;4990214;28;20203;-74
2023/06/05 05:23:15;;;;;;;6.53;4.70;;;;;;;;;;5011503;28;20281;-74
2023/06/05 05:25:41;;;;;;;13.38;5.97;;;;;;;;;;5010064;28;20191;-74
2023/06/05 05:28:06;;;;;;;8.35;5.32;;;;;;;;;;4993264;28;20190;-74
2023/06/05 05:30:32;;;;;;;9.03;5.03;;;;;;;;;;4992012;28;20225;-75
2023/06/05 05:32:57;;;;;;;8.07;4.82;;;;;;;;;;4994015;28;20280;-75
2023/06/05 05:35:23;;;;;;;7.25;4.97;;;;;;;;;;4993089;28;20291;-74
2023/06/05 05:37:48;;;;;;;10.43;4.68;;;;;;;;;;5014875;28;20610;-75
2023/06/05 05:40:13;;;;;;;7.97;4.70;;;;;;;;;;5007850;28;20768;-76
2023/06/05 05:42:38;;;;;;;8.00;5.03;;;;;;;;;;4993518;28;20611;-75
2023/06/05 05:45:04;;;;;;;8.07;5.43;;;;;;;;;;5010558;28;20199;-75
2023/06/05 05:47:29;;;;;;;8.90;5.00;;;;;;;;;;5008148;28;20190;-75
2023/06/05 05:49:54;;;;;;;6.97;5.13;;;;;;;;;;5009212;28;20183;-75
2023/06/05 05:52:22;;;;;;;6.18;4.60;;;;;;;;;;5014518;28;20183;-75
2023/06/05 05:54:47;;;;;;;7.50;4.53;;;;;;;;;;5015653;28;20683;-75
2023/06/05 05:57:12;;;;;;;7.15;5.03;;;;;;;;;;5012840;28;20190;-75
2023/06/05 05:59:38;;;;;;;8.27;5.60;;;;;;;;;;4997037;28;20183;-75
2023/06/05 06:02:09;;;;;;;7.45;5.05;;;;;;;;;;5003041;28;20187;-76
2023/06/05 06:04:34;;;;;;;9.05;4.82;;;;;;;;;;5011868;28;20775;-75
2023/06/05 06:07:00;;;;;;;10.88;4.88;;;;;;;;;;5092563;22;20319;-70
2023/06/05 06:09:26;;;;;;;7.13;4.40;;;;;;;;;;5060449;28;20185;-70
2023/06/05 06:11:55;;;;;;;6.93;4.60;;;;;;;;;;5062320;28;20253;-70
2023/06/05 06:14:20;;;;;;;7.20;4.57;;;;;;;;;;5072270;28;20209;-71
2023/06/05 06:16:45;;;;;;;8.77;5.13;;;;;;;;;;5056276;28;20205;-71
2023/06/05 06:19:14;;;;;;;11.63;4.97;;;;;;;;;;5053143;28;20231;-71
2023/06/05 06:21:40;;;;;;;6.60;4.47;;;;;;;;;;5047743;28;20201;-70
2023/06/05 06:24:05;;;;;;;7.47;4.95;;;;;;;;;;5050763;28;20177;-71
2023/06/05 06:26:30;;;;;;;7.50;4.53;;;;;;;;;;5050013;28;20193;-71
2023/06/05 06:28:57;;;;;;;12.85;5.10;;;;;;;;;;5051623;28;20178;-71
2023/06/05 06:31:22;;;;;;;8.32;5.28;;;;;;;;;;5047956;28;20193;-71
2023/06/05 06:33:47;;;;;;;11.40;5.57;;;;;;;;;;5049298;28;20178;-71
2023/06/05 06:36:13;;;;;;;7.32;4.30;;;;;;;;;;5049935;28;20197;-71
2023/06/05 06:38:38;;;;;;;10.07;5.32;;;;;;;;;;5052045;28;20273;-70
2023/06/05 06:41:04;;;;;;;8.27;4.55;;;;;;;;;;5052766;28;20240;-70
2023/06/05 06:43:29;;;;;;;9.02;5.43;;;;;;;;;;5050510;28;20178;-70
2023/06/05 06:45:54;;;;;;;6.15;4.70;;;;;;;;;;5053093;28;20575;-70
2023/06/05 06:48:20;;;;;;;10.60;5.35;;;;;;;;;;5053286;28;20176;-70
2023/06/05 06:50:45;;;;;;;6.65;5.03;;;;;;;;;;5052590;28;20560;-71
2023/06/05 06:53:10;;;;;;;6.70;4.72;;;;;;;;;;5051501;28;20637;-71
2023/06/05 06:55:36;;;;;;;8.15;4.63;;;;;;;;;;5052187;28;20196;-70
2023/06/05 06:58:01;;;;;;;7.30;4.65;;;;;;;;;;5051904;28;20319;-70
2023/06/05 07:00:26;;;;;;;6.85;4.30;;;;;;;;;;5050726;28;20201;-70
2023/06/05 07:02:51;;;;;;;8.35;4.85;;;;;;;;;;5038478;28;20179;-70
2023/06/05 07:05:19;;;;;;;8.23;4.97;;;;;;;;;;5048091;28;20210;-70
2023/06/05 07:07:44;;;;;;;8.02;4.93;;;;;;;;;;5049918;28;20182;-70
2023/06/05 07:10:10;;;;;;;7.60;5.20;;;;;;;;;;5051003;28;20189;-70
2023/06/05 07:12:35;;;;;;;7.93;4.70;;;;;;;;;;5051710;28;20174;-70
2023/06/05 07:15:00;;;;;;;6.35;4.60;;;;;;;;;;5047497;28;20185;-71
2023/06/05 07:17:28;;;;;;;5.90;4.65;;;;;;;;;;5051556;28;20196;-70
2023/06/05 07:19:54;;;;;;;6.20;4.32;;;;;;;;;;5061333;28;20438;-70
2023/06/05 07:22:20;;;;;;;8.25;5.07;;;;;;;;;;5067984;28;20264;-70
2023/06/05 07:24:45;;;;;;;6.13;4.25;;;;;;;;;;5051029;28;20235;-71
2023/06/05 07:27:10;;;;;;;7.18;4.63;;;;;;;;;;5045149;28;20189;-70
2023/06/05 07:29:36;;;;;;;6.90;4.68;;;;;;;;;;5049351;28;20209;-70
2023/06/05 07:32:05;;;;;;;7.55;4.90;;;;;;;;;;5052160;28;20209;-70
2023/06/05 07:34:30;;;;;;;6.57;5.25;;;;;;;;;;5046735;28;20246;-70
2023/06/05 07:36:56;;;;;;;6.57;4.35;;;;;;;;;;5050941;28;20674;-70
2023/06/05 07:39:22;;;;;;;8.90;4.38;;;;;;;;;;5050213;28;20588;-71
2023/06/05 07:41:47;;;;;;;6.95;4.70;;;;;;;;;;5051942;28;20205;-71
2023/06/05 07:44:14;;;;;;;6.90;5.53;;;;;;;;;;5050482;28;20214;-70
2023/06/05 07:46:39;;;;;;;8.07;4.88;;;;;;;;;;5050449;28;20728;-71
2023/06/05 07:49:05;;;;;;;7.15;4.85;;;;;;;;;;5049886;28;20189;-70
2023/06/05 07:51:33;;;;;;;7.68;4.63;;;;;;;;;;5048115;28;20178;-71
2023/06/05 07:53:58;;;;;;;8.05;4.70;;;;;;;;;;5051780;28;20178;-70
2023/06/05 07:56:23;;;;;;;6.38;4.57;;;;;;;;;;5050963;28;20289;-71
2023/06/05 07:58:49;;;;;;;6.68;4.97;;;;;;;;;;5050394;28;20566;-69
2023/06/05 08:01:15;;;;;;;8.02;4.10;;;;;;;;;;5042920;28;20205;-70
2023/06/05 08:03:41;;;;;;;7.00;4.22;;;;;;;;;;5049774;28;20612;-70
2023/06/05 08:06:06;;;;;;;6.78;4.15;;;;;;;;;;5066737;28;20299;-70
2023/06/05 08:08:32;;;;;;;7.57;4.40;;;;;;;;;;5050325;28;20391;-70
2023/06/05 08:10:57;;;;;;;7.03;4.23;;;;;;;;;;5047550;28;20182;-70
2023/06/05 08:13:22;;;;;;;8.35;4.95;;;;;;;;;;5048889;28;20923;-70
2023/06/05 08:15:47;;;;;;;8.30;4.60;;;;;;;;;;5051361;28;20202;-71
2023/06/05 08:18:14;;;;;;;6.18;3.90;;;;;;;;;;5050173;28;20216;-70
2023/06/05 08:20:40;;;;;;;5.63;4.63;;;;;;;;;;5050632;28;20212;-70
2023/06/05 08:23:05;;;;;;;14.95;4.20;;;;;;;;;;5054464;28;20178;-70
2023/06/05 08:25:30;;;;;;;4.60;3.67;;;;;;;;;;5051132;28;20207;-70
2023/06/05 08:27:55;;;;;;;7.85;4.15;;;;;;;;;;5049816;28;20181;-70
2023/06/05 08:30:21;;;;;;;5.37;4.10;;;;;;;;;;5047587;28;20194;-70
2023/06/05 08:32:46;;;;;;;4.25;3.70;;;;;;;;;;5049931;28;20485;-70
2023/06/05 08:35:12;;;;;;;4.97;3.88;;;;;;;;;;5050183;28;20178;-70
2023/06/05 08:37:37;;;;;;;6.47;4.20;;;;;;;;;;5053463;28;20186;-70
2023/06/05 08:40:06;;;;;;;6.07;4.00;;;;;;;;;;5051035;28;20185;-70
2023/06/05 08:42:31;;;;;;;4.70;3.58;;;;;;;;;;5050591;28;20170;-70
2023/06/05 08:44:56;;;;;;;5.53;3.50;;;;;;;;;;5051962;28;20173;-70
2023/06/05 08:47:24;;;;;;;4.70;3.58;;;;;;;;;;5050619;28;20178;-70
2023/06/05 08:49:52;;;;;;;5.63;3.10;;;;;;;;;;5050591;28;20173;-70
2023/06/05 08:52:19;;;;;;;6.82;3.47;;;;;;;;;;5051232;28;20174;-71
2023/06/05 08:54:45;;;;;;;4.97;3.20;;;;;;;;;;5051015;28;20718;-70
2023/06/05 08:57:10;;;;;;;4.50;3.33;;;;;;;;;;5048990;28;20284;-70
2023/06/05 08:59:36;;;;;;;5.13;3.13;;;;;;;;;;5044753;28;20201;-70
2023/06/05 09:02:01;;;;;;;6.47;3.38;;;;;;;;;;5046751;28;20562;-70
2023/06/05 09:04:29;;;;;;;4.50;3.45;;;;;;;;;;5049596;28;20178;-70
2023/06/05 09:06:58;;;;;;;4.43;3.58;;;;;;;;;;5050206;28;20228;-70
2023/06/05 09:09:25;;;;;;;5.03;3.17;;;;;;;;;;5050761;28;20177;-70
2023/06/05 09:12:09;;;;;;;4.93;3.60;;;;;;;;;;5048182;28;20174;-70
2023/06/05 09:14:34;;;;;;;6.40;3.05;;;;;;;;;;5049848;28;20227;-70
2023/06/05 09:17:00;;;;;;;5.22;3.22;;;;;;;;;;5050309;28;20194;-71
2023/06/05 09:19:35;;;;;;;5.97;3.67;;;;;;;;;;5050684;28;20166;-70
2023/06/05 09:22:00;;;;;;;4.65;3.50;;;;;;;;;;5044172;28;20169;-71
2023/06/05 09:24:27;;;;;;;5.23;3.40;;;;;;;;;;5050893;28;20177;-71
2023/06/05 09:26:56;;;;;;;7.22;3.38;;;;;;;;;;5053442;28;20445;-71
2023/06/05 09:29:22;;;;;;;3.95;2.90;;;;;;;;;;5053058;28;20201;-71
2023/06/05 09:31:48;;;;;;;4.68;2.80;;;;;;;;;;5053431;28;20172;-70
2023/06/05 09:34:20;;;;;;;6.15;3.50;;;;;;;;;;5053469;28;20269;-70
2023/06/05 09:36:45;;;;;;;6.70;3.25;;;;;;;;;;5056358;28;20246;-71
2023/06/05 09:39:15;;;;;;;5.20;3.20;;;;;;;;;;5052972;28;20182;-71
2023/06/05 09:41:44;;;;;;;5.68;3.30;;;;;;;;;;5053063;28;20235;-71
2023/06/05 09:44:09;;;;;;;5.28;3.72;;;;;;;;;;5053216;28;20169;-71
2023/06/05 09:46:49;;;;;;;6.45;3.28;;;;;;;;;;5054034;28;20719;-71
2023/06/05 09:49:14;;;;;;;7.45;3.58;;;;;;;;;;5049765;28;20176;-71
2023/06/05 09:51:42;;;;;;;5.35;3.13;;;;;;;;;;5053588;28;20182;-71
2023/06/05 09:54:08;;;;;;;4.28;3.72;;;;;;;;;;5053571;28;20186;-71
2023/06/05 09:56:34;;;;;;;6.43;4.63;;;;;;;;;;5050061;28;20193;-71
2023/06/05 09:59:00;;;;;;;5.60;3.90;;;;;;;;;;5051842;28;20209;-71
2023/06/05 10:01:28;;;;;;;6.10;4.00;;;;;;;;;;5055222;28;20199;-71
2023/06/05 10:03:57;;;;;;;4.32;2.95;;;;;;;;;;5051484;28;20173;-71
2023/06/05 10:06:23;;;;;;;6.25;3.25;;;;;;;;;;5050324;28;20214;-71
2023/06/05 10:08:56;;;;;;;4.47;2.85;;;;;;;;;;5053228;28;20197;-71
2023/06/05 10:11:22;;;;;;;5.63;3.10;;;;;;;;;;5064964;28;20177;-71
2023/06/05 10:13:48;;;;;;;4.18;3.33;;;;;;;;;;5052206;28;20240;-71
2023/06/05 10:16:14;;;;;;;4.68;3.40;;;;;;;;;;5053856;28;20201;-71
2023/06/05 10:18:39;;;;;;;4.25;3.22;;;;;;;;;;5053646;28;20280;-71
2023/06/05 10:21:05;;;;;;;3.92;2.47;;;;;;;;;;5049860;28;20201;-71
2023/06/05 10:23:31;;;;;;;4.00;3.28;;;;;;;;;;5058262;28;20588;-71
2023/06/05 10:25:56;;;;;;;6.45;3.63;;;;;;;;;;5068661;28;20194;-71
2023/06/05 10:28:29;;;;;;;5.57;3.67;;;;;;;;;;5068438;28;20176;-71
2023/06/05 10:31:06;;;;;;;6.05;3.67;;;;;;;;;;5051766;28;20588;-71
2023/06/05 10:33:47;;;;;;;3.90;2.75;;;;;;;;;;5059124;28;20209;-71
2023/06/05 10:36:32;;;;;;;4.10;2.83;;;;;;;;;;5071301;28;20694;-71
2023/06/05 10:38:58;;;;;;;4.40;2.85;;;;;;;;;;5041627;28;20186;-71
2023/06/05 10:41:23;;;;;;;6.07;2.72;;;;;;;;;;5051388;28;20284;-71
2023/06/05 10:43:49;;;;;;;5.32;3.50;;;;;;;;;;5053900;28;20585;-71
2023/06/05 10:46:26;;;;;;;5.57;3.13;;;;;;;;;;5052631;28;20746;-71
2023/06/05 10:49:04;;;;;;;5.18;2.85;;;;;;;;;;5053147;28;20166;-71
2023/06/05 10:51:43;;;;;;;3.58;2.55;;;;;;;;;;5068722;28;20204;-71
2023/06/05 10:54:09;;;;;;;4.75;2.95;;;;;;;;;;5047495;28;20177;-71
2023/06/05 10:56:53;;;;;;;4.88;2.53;;;;;;;;;;5047132;28;20209;-70
2023/06/05 10:59:22;;;;;;;3.95;2.63;;;;;;;;;;5052970;28;20181;-70
2023/06/05 11:02:06;;;;;;;3.05;2.25;;;;;;;;;;5053694;28;20786;-70
2023/06/05 11:04:46;;;;;;;3.83;2.78;;;;;;;;;;5052925;28;20631;-70
2023/06/05 11:07:14;;;;;;;3.38;2.22;;;;;;;;;;5050494;28;20294;-71
2023/06/05 11:10:00;;;;;;;4.38;2.47;;;;;;;;;;5052355;28;20200;-70
2023/06/05 11:12:25;;;;;;;4.70;2.47;;;;;;;;;;5042105;28;20210;-70
2023/06/05 11:14:50;;;;;;;6.40;2.97;;;;;;;;;;5050261;28;20236;-70
2023/06/05 11:17:28;;;;;;;3.42;2.53;;;;;;;;;;5050793;28;20201;-70
2023/06/05 11:19:53;;;;;;;2.88;2.47;;;;;;;;;;5051173;28;20184;-70
2023/06/05 11:22:18;;;;;;;3.38;2.50;;;;;;;;;;5053308;28;20174;-70
2023/06/05 11:24:44;;;;;;;3.85;2.42;;;;;;;;;;5050304;28;20192;-70
2023/06/05 11:27:29;;;;;;;3.15;2.20;;;;;;;;;;5050656;28;20205;-70
2023/06/05 11:29:55;;;;;;;3.10;2.30;;;;;;;;;;5051784;28;20194;-70
2023/06/05 11:32:25;;;;;;;4.45;2.47;;;;;;;;;;5052655;28;20636;-71
2023/06/05 11:34:52;;;;;;;2.60;2.13;;;;;;;;;;5053312;28;20174;-70
2023/06/05 11:37:18;;;;;;;3.53;2.05;;;;;;;;;;5055627;28;20193;-71
2023/06/05 11:39:43;;;;;;;2.50;2.05;;;;;;;;;;5051108;28;20188;-70
2023/06/05 11:42:08;;;;;;;4.70;2.28;;;;;;;;;;5051035;28;20570;-70
2023/06/05 11:44:35;;;;;;;2.63;2.28;;;;;;;;;;5053041;28;20635;-70
2023/06/05 11:47:01;;;;;;;3.17;2.20;;;;;;;;;;5043949;28;20639;-70
2023/06/05 11:49:27;;;;;;;2.78;1.80;;;;;;;;;;5047086;28;20177;-70
2023/06/05 11:51:52;;;;;;;3.42;1.70;;;;;;;;;;5067618;28;20338;-70
2023/06/05 11:54:24;;;;;;;3.72;2.30;;;;;;;;;;5045660;28;20231;-70
2023/06/05 11:56:52;;;;;;;3.55;2.40;;;;;;;;;;5049000;28;20290;-70
2023/06/05 11:59:17;;;;;;;3.95;2.13;;;;;;;;;;5049833;28;20217;-70
2023/06/05 12:01:43;;;;;;;2.97;1.70;;;;;;;;;;5050409;28;20251;-70
2023/06/05 12:04:09;;;;;;;5.35;2.60;;;;;;;;;;5050710;28;20192;-70
2023/06/05 12:06:41;;;;;;;2.80;1.85;;;;;;;;;;5055509;22;20316;-76
2023/06/05 12:09:11;;;;;;;2.47;2.03;;;;;;;;;;5024881;28;20672;-77
2023/06/05 12:11:37;;;;;;;3.30;2.25;;;;;;;;;;5031220;28;20198;-77
2023/06/05 12:14:03;;;;;;;3.22;2.22;;;;;;;;;;5032189;28;20566;-76
2023/06/05 12:16:36;;;;;;;2.22;2.03;;;;;;;;;;5029592;28;20209;-76
2023/06/05 12:19:02;;;;;;;4.05;2.05;;;;;;;;;;5033481;28;20254;-77
2023/06/05 12:21:27;;;;;;;3.55;1.98;;;;;;;;;;5020975;28;20170;-76
2023/06/05 12:24:03;;;;;;;2.22;1.70;;;;;;;;;;5039642;28;20244;-76
2023/06/05 12:26:32;;;;;;;5.78;2.38;;;;;;;;;;5039030;28;20202;-77
2023/06/05 12:29:05;;;;;;;4.03;1.80;;;;;;;;;;5038933;28;20171;-76
2023/06/05 12:31:35;;;;;;;3.60;2.22;;;;;;;;;;5037205;28;20213;-77
2023/06/05 12:34:01;;;;;;;3.42;2.40;;;;;;;;;;5038758;28;20651;-77
2023/06/05 12:36:28;;;;;;;2.60;2.30;;;;;;;;;;5026680;28;20209;-77
2023/06/05 12:38:54;;;;;;;2.35;2.00;;;;;;;;;;5042088;28;20260;-78
2023/06/05 12:41:19;;;;;;;4.45;1.85;;;;;;;;;;5039508;28;20208;-78
2023/06/05 12:43:44;;;;;;;2.03;1.83;;;;;;;;;;5043471;28;20183;-77
2023/06/05 12:46:11;;;;;;;3.93;2.20;;;;;;;;;;5039112;28;20277;-78
2023/06/05 12:48:39;;;;;;;4.05;2.30;;;;;;;;;;5019120;28;20499;-77
2023/06/05 12:51:05;;;;;;;3.80;2.15;;;;;;;;;;5035984;28;20249;-77
2023/06/05 12:53:30;;;;;;;3.45;2.35;;;;;;;;;;5035885;28;20178;-77
2023/06/05 12:55:56;;;;;;;6.65;2.80;;;;;;;;;;5044692;28;20232;-77
2023/06/05 12:58:21;;;;;;;4.35;2.60;;;;;;;;;;5034171;28;20178;-76
2023/06/05 13:00:47;;;;;;;3.83;2.40;;;;;;;;;;5033857;28;20177;-76
2023/06/05 13:03:12;;;;;;;3.22;2.33;;;;;;;;;;5034468;28;20175;-78
2023/06/05 13:05:37;;;;;;;3.38;2.10;;;;;;;;;;5033350;28;20220;-77
2023/06/05 13:08:03;;;;;;;5.70;2.63;;;;;;;;;;5032969;28;20184;-76
2023/06/05 13:10:28;;;;;;;3.70;2.07;;;;;;;;;;5033511;28;20241;-77
2023/06/05 13:12:53;;;;;;;5.20;2.50;;;;;;;;;;5032360;28;20408;-76
2023/06/05 13:15:18;;;;;;;6.03;2.63;;;;;;;;;;5025555;28;20431;-76
2023/06/05 13:17:45;;;;;;;3.40;2.57;;;;;;;;;;5028396;28;20446;-76
2023/06/05 13:20:11;;;;;;;4.38;2.15;;;;;;;;;;5019212;28;20443;-77
2023/06/05 13:22:36;;;;;;;3.30;2.50;;;;;;;;;;5016478;28;20193;-76
2023/06/05 13:25:02;;;;;;;3.85;2.33;;;;;;;;;;5035539;28;20232;-77
2023/06/05 13:27:27;;;;;;;3.70;2.13;;;;;;;;;;5038361;28;20229;-77
2023/06/05 13:29:53;;;;;;;2.60;2.40;;;;;;;;;;5034524;28;20202;-76
2023/06/05 13:32:18;;;;;;;3.90;2.57;;;;;;;;;;5010934;28;20181;-76
2023/06/05 13:34:43;;;;;;;2.83;2.17;;;;;;;;;;5030469;28;20826;-76
2023/06/05 13:37:08;;;;;;;6.30;2.60;;;;;;;;;;5042994;28;20282;-77
2023/06/05 13:39:33;;;;;;;5.25;2.58;;;;;;;;;;5038349;28;20403;-77
2023/06/05 13:42:00;;;;;;;3.78;2.25;;;;;;;;;;5018637;28;20181;-76
2023/06/05 13:44:25;;;;;;;4.82;2.28;;;;;;;;;;5036450;28;20376;-77
2023/06/05 13:46:51;;;;;;;3.65;2.22;;;;;;;;;;5033949;28;20676;-77
2023/06/05 13:49:16;;;;;;;4.00;2.67;;;;;;;;;;5034578;28;20170;-76
2023/06/05 13:51:41;;;;;;;3.13;2.20;;;;;;;;;;5027496;28;20190;-76
2023/06/05 13:54:06;;;;;;;8.43;3.10;;;;;;;;;;5024447;28;20407;-78
2023/06/05 13:56:32;;;;;;;4.07;2.50;;;;;;;;;;5015038;28;20194;-75
2023/06/05 13:58:57;;;;;;;4.93;2.97;;;;;;;;;;5034946;28;20232;-77
2023/06/05 14:01:22;;;;;;;3.60;2.50;;;;;;;;;;5011492;28;20482;-78
2023/06/05 14:03:48;;;;;;;5.60;2.83;;;;;;;;;;5005542;28;20324;-77
2023/06/05 14:06:13;;;;;;;2.65;2.17;;;;;;;;;;5032772;28;20214;-79
2023/06/05 14:08:38;;;;;;;3.08;2.70;;;;;;;;;;5039415;28;20257;-76
2023/06/05 14:11:03;;;;;;;3.35;2.58;;;;;;;;;;5036023;28;20691;-77
2023/06/05 14:13:29;;;;;;;3.67;2.45;;;;;;;;;;5040496;28;20206;-78
2023/06/05 14:15:54;;;;;;;4.40;2.72;;;;;;;;;;5039140;28;20194;-76
2023/06/05 14:18:20;;;;;;;6.27;2.67;;;;;;;;;;5020558;28;20174;-77
2023/06/05 14:20:45;;;;;;;3.03;2.40;;;;;;;;;;5036644;28;20905;-77
2023/06/05 14:23:10;;;;;;;3.00;2.30;;;;;;;;;;5037104;28;20257;-77
2023/06/05 14:25:36;;;;;;;3.30;2.22;;;;;;;;;;5009306;28;20190;-78
2023/06/05 14:28:01;;;;;;;4.00;2.47;;;;;;;;;;5016539;28;20591;-77
2023/06/05 14:30:27;;;;;;;4.25;2.83;;;;;;;;;;5018164;28;20740;-77
2023/06/05 14:32:52;;;;;;;5.93;2.80;;;;;;;;;;5018600;28;20785;-76
2023/06/05 14:35:19;;;;;;;4.55;2.85;;;;;;;;;;5041149;28;20264;-77
2023/06/05 14:37:44;;;;;;;4.18;2.58;;;;;;;;;;5035245;28;20178;-77